Time,TemperatureF,DewpointF,PressureIn,WindDirection,WindDirectionDegrees,WindSpeedMPH,WindSpeedGustMPH,Humidity,HourlyPrecipIn,Conditions,Clouds,dailyrainin,SoftwareType,DateUTC
2013-10-12 00:01:00,47.7,45.5,30.11,NE,49,0.0,0.0,92,0.00,RA,,0.00,WeatherDisplay:10.37,2013-10-12 04:01:00,
2013-10-12 00:06:00,47.9,45.7,30.11,NE,48,0.0,0.0,92,0.00,RA,,0.00,WeatherDisplay:10.37,2013-10-12 04:06:00,
2013-10-12 00:11:00,47.9,45.7,30.11,NE,49,0.0,0.0,92,0.00,CLR,,0.00,WeatherDisplay:10.37,2013-10-12 04:11:00,
2013-10-12 00:16:00,47.8,45.6,30.11,NE,49,0.0,0.0,92,0.00,CLR,,0.00,WeatherDisplay:10.37,2013-10-12 04:16:00,
2013-10-12 00:21:00,47.7,45.8,30.11,NE,49,0.0,0.0,93,0.00,CLR,,0.00,WeatherDisplay:10.37,2013-10-12 04:21:00,
2013-10-12 00:26:00,47.9,46.0,30.11,NE,49,0.0,0.0,93,0.00,CLR,,0.00,WeatherDisplay:10.37,2013-10-12 04:26:00,
2013-10-12 00:31:00,47.9,46.0,30.11,NE,49,0.0,0.0,93,0.00,CLR,,0.00,WeatherDisplay:10.37,2013-10-12 04:31:00,
2013-10-12 00:36:00,47.7,45.8,30.11,NE,49,0.0,0.0,93,0.00,CLR,,0.00,WeatherDisplay:10.37,2013-10-12 04:36:00,
2013-10-12 00:41:00,47.8,45.9,30.11,NE,48,0.0,0.0,93,0.00,CLR,,0.00,WeatherDisplay:10.37,2013-10-12 04:41:00,
2013-10-12 00:46:00,47.7,45.8,30.11,NE,49,0.0,0.0,93,0.00,CLR,,0.00,WeatherDisplay:10.37,2013-10-12 04:46:00,
2013-10-12 00:52:00,47.6,45.7,30.11,NE,49,0.0,0.0,93,0.00,CLR,,0.00,WeatherDisplay:10.37,2013-10-12 04:52:00,
2013-10-12 00:57:00,47.9,46.3,30.11,NE,49,0.0,0.0,94,0.00,CLR,,0.00,WeatherDisplay:10.37,2013-10-12 04:57:00,
2013-10-12 01:02:00,48.0,46.4,30.11,NE,49,0.0,0.0,94,0.00,CLR,,0.00,WeatherDisplay:10.37,2013-10-12 05:02:00,
2013-10-12 01:07:00,48.3,46.9,30.11,NE,48,0.0,0.0,95,0.00,CLR,,0.00,WeatherDisplay:10.37,2013-10-12 05:07:00,
2013-10-12 01:12:00,48.1,46.5,30.11,NE,49,0.0,0.0,94,0.00,CLR,,0.00,WeatherDisplay:10.37,2013-10-12 05:12:00,
2013-10-12 01:18:00,47.6,46.0,30.11,NE,49,0.0,0.0,94,0.00,CLR,,0.00,WeatherDisplay:10.37,2013-10-12 05:18:00,
2013-10-12 01:23:00,47.4,45.8,30.11,NE,49,0.0,0.0,94,0.00,CLR,,0.00,WeatherDisplay:10.37,2013-10-12 05:23:00,
2013-10-12 01:28:00,47.1,45.5,30.11,NE,49,0.0,0.0,94,0.00,CLR,,0.00,WeatherDisplay:10.37,2013-10-12 05:28:00,
2013-10-12 01:33:00,47.3,45.9,30.11,NE,49,0.0,0.0,95,0.00,CLR,,0.00,WeatherDisplay:10.37,2013-10-12 05:33:00,
2013-10-12 01:38:00,47.2,45.8,30.11,NE,48,0.0,0.0,95,0.00,CLR,,0.00,WeatherDisplay:10.37,2013-10-12 05:38:00,
2013-10-12 01:43:00,47.1,45.7,30.11,NE,48,0.0,0.0,95,0.00,CLR,,0.00,WeatherDisplay:10.37,2013-10-12 05:43:00,
2013-10-12 01:48:00,47.1,45.7,30.11,NE,49,0.0,0.0,95,0.00,CLR,,0.00,WeatherDisplay:10.37,2013-10-12 05:48:00,
2013-10-12 01:53:00,47.1,45.7,30.11,NE,48,0.0,0.0,95,0.00,CLR,,0.00,WeatherDisplay:10.37,2013-10-12 05:53:00,
2013-10-12 01:58:00,47.3,46.2,30.11,NE,49,0.0,0.0,96,0.00,CLR,,0.00,WeatherDisplay:10.37,2013-10-12 05:58:00,
2013-10-12 02:03:00,47.5,46.4,30.11,NE,49,0.0,0.0,96,0.00,CLR,,0.00,WeatherDisplay:10.37,2013-10-12 06:03:00,
2013-10-12 02:08:00,47.5,46.4,30.11,NE,49,0.0,0.0,96,0.00,CLR,,0.00,WeatherDisplay:10.37,2013-10-12 06:08:00,
2013-10-12 02:13:00,47.5,46.4,30.11,NE,48,0.0,0.0,96,0.00,CLR,,0.00,WeatherDisplay:10.37,2013-10-12 06:13:00,
2013-10-12 02:18:00,47.4,46.3,30.11,NE,49,0.0,0.0,96,0.00,CLR,,0.00,WeatherDisplay:10.37,2013-10-12 06:18:00,
2013-10-12 02:23:00,47.1,45.7,30.11,NE,49,0.0,0.0,95,0.00,CLR,,0.00,WeatherDisplay:10.37,2013-10-12 06:23:00,
2013-10-12 02:28:00,47.0,45.9,30.11,NE,49,0.0,0.0,96,0.00,CLR,,0.00,WeatherDisplay:10.37,2013-10-12 06:28:00,
2013-10-12 02:33:00,46.8,45.7,30.11,NE,49,0.0,0.0,96,0.00,CLR,,0.00,WeatherDisplay:10.37,2013-10-12 06:33:00,
2013-10-12 02:38:00,46.7,45.6,30.11,NE,48,0.0,0.0,96,0.00,CLR,,0.00,WeatherDisplay:10.37,2013-10-12 06:38:00,
2013-10-12 02:43:00,46.4,45.0,30.11,NE,48,0.0,0.0,95,0.00,CLR,,0.00,WeatherDisplay:10.37,2013-10-12 06:43:00,
2013-10-12 02:48:00,46.4,45.3,30.11,NE,49,0.0,0.0,96,0.00,CLR,,0.00,WeatherDisplay:10.37,2013-10-12 06:48:00,
2013-10-12 02:53:00,46.4,45.3,30.11,NE,49,0.0,0.0,96,0.00,CLR,,0.00,WeatherDisplay:10.37,2013-10-12 06:53:00,
2013-10-12 02:58:00,46.0,44.9,30.11,NE,48,0.0,0.0,96,0.00,CLR,,0.00,WeatherDisplay:10.37,2013-10-12 06:58:00,
2013-10-12 03:03:00,45.7,44.6,30.11,NE,49,0.0,0.0,96,0.00,CLR,,0.00,WeatherDisplay:10.37,2013-10-12 07:03:00,
2013-10-12 03:08:00,45.4,44.3,30.11,NE,49,0.0,0.0,96,0.00,CLR,,0.00,WeatherDisplay:10.37,2013-10-12 07:08:00,
2013-10-12 03:13:00,45.4,44.3,30.11,NE,49,0.0,0.0,96,0.00,CLR,,0.00,WeatherDisplay:10.37,2013-10-12 07:13:00,
2013-10-12 03:18:00,45.5,44.4,30.11,NE,48,0.0,0.0,96,0.00,CLR,,0.00,WeatherDisplay:10.37,2013-10-12 07:18:00,
2013-10-12 03:23:00,46.0,45.2,30.11,NE,48,0.0,0.0,97,0.00,CLR,,0.00,WeatherDisplay:10.37,2013-10-12 07:23:00,
2013-10-12 03:28:00,46.2,45.4,30.11,NE,48,0.0,0.0,97,0.00,CLR,,0.00,WeatherDisplay:10.37,2013-10-12 07:28:00,
2013-10-12 03:33:00,46.1,45.3,30.12,NE,49,0.0,0.0,97,0.00,CLR,,0.00,WeatherDisplay:10.37,2013-10-12 07:33:00,
2013-10-12 03:39:00,45.6,44.5,30.12,NE,49,0.0,0.0,96,0.00,CLR,,0.00,WeatherDisplay:10.37,2013-10-12 07:39:00,
2013-10-12 03:44:00,45.1,44.0,30.12,NE,49,0.0,0.0,96,0.00,CLR,,0.00,WeatherDisplay:10.37,2013-10-12 07:44:00,
2013-10-12 03:49:00,44.8,43.7,30.12,East,97,0.0,0.0,96,0.00,CLR,,0.00,WeatherDisplay:10.37,2013-10-12 07:49:00,
2013-10-12 03:54:00,44.7,43.6,30.12,East,98,0.0,0.0,96,0.00,CLR,,0.00,WeatherDisplay:10.37,2013-10-12 07:54:00,
2013-10-12 03:59:00,44.5,43.4,30.12,East,101,0.0,0.0,96,0.00,CLR,,0.00,WeatherDisplay:10.37,2013-10-12 07:59:00,
2013-10-12 04:04:00,44.2,43.1,30.12,East,100,0.0,0.0,96,0.00,CLR,,0.00,WeatherDisplay:10.37,2013-10-12 08:04:00,
2013-10-12 04:09:00,44.1,43.0,30.12,East,100,0.0,0.0,96,0.00,CLR,,0.00,WeatherDisplay:10.37,2013-10-12 08:09:00,
2013-10-12 04:14:00,44.1,43.0,30.12,East,101,0.0,0.0,96,0.00,CLR,,0.00,WeatherDisplay:10.37,2013-10-12 08:14:00,
2013-10-12 04:19:00,44.1,43.0,30.12,East,100,0.0,0.0,96,0.00,CLR,,0.00,WeatherDisplay:10.37,2013-10-12 08:19:00,
2013-10-12 04:24:00,44.1,43.0,30.12,East,100,0.0,0.0,96,0.00,CLR,,0.00,WeatherDisplay:10.37,2013-10-12 08:24:00,
2013-10-12 04:29:00,44.3,43.2,30.12,East,101,0.0,0.0,96,0.00,CLR,,0.00,WeatherDisplay:10.37,2013-10-12 08:29:00,
2013-10-12 04:34:00,44.4,43.6,30.12,East,100,0.0,0.0,97,0.00,CLR,,0.00,WeatherDisplay:10.37,2013-10-12 08:34:00,
2013-10-12 04:39:00,44.2,43.4,30.12,East,100,0.0,0.0,97,0.00,CLR,,0.00,WeatherDisplay:10.37,2013-10-12 08:39:00,
2013-10-12 04:44:00,44.1,43.3,30.12,East,100,0.0,0.0,97,0.00,CLR,,0.00,WeatherDisplay:10.37,2013-10-12 08:44:00,
2013-10-12 04:49:00,44.1,43.3,30.12,East,101,0.0,0.0,97,0.00,CLR,,0.00,WeatherDisplay:10.37,2013-10-12 08:49:00,
2013-10-12 04:54:00,44.0,43.2,30.12,East,100,0.0,0.0,97,0.00,CLR,,0.00,WeatherDisplay:10.37,2013-10-12 08:54:00,
2013-10-12 04:59:00,43.7,42.6,30.12,East,100,0.0,0.0,96,0.00,CLR,,0.00,WeatherDisplay:10.37,2013-10-12 08:59:00,
2013-10-12 05:04:00,43.6,42.5,30.12,East,101,0.0,0.0,96,0.00,CLR,,0.00,WeatherDisplay:10.37,2013-10-12 09:04:00,
2013-10-12 05:09:00,43.6,42.5,30.13,East,101,0.0,0.0,96,0.00,CLR,,0.00,WeatherDisplay:10.37,2013-10-12 09:09:00,
2013-10-12 05:14:00,43.9,43.1,30.13,East,100,0.0,0.0,97,0.00,CLR,,0.00,WeatherDisplay:10.37,2013-10-12 09:14:00,
2013-10-12 05:19:00,44.2,43.4,30.13,East,100,0.0,0.0,97,0.00,CLR,,0.00,WeatherDisplay:10.37,2013-10-12 09:19:00,
2013-10-12 05:24:00,44.5,43.7,30.13,East,100,0.0,0.0,97,0.00,CLR,,0.00,WeatherDisplay:10.37,2013-10-12 09:24:00,
2013-10-12 05:29:00,44.6,43.8,30.13,East,100,0.0,0.0,97,0.00,CLR,,0.00,WeatherDisplay:10.37,2013-10-12 09:29:00,
2013-10-12 05:34:00,44.7,43.9,30.13,East,101,0.0,0.0,97,0.00,CLR,,0.00,WeatherDisplay:10.37,2013-10-12 09:34:00,
2013-10-12 05:39:00,44.8,44.0,30.13,East,100,0.0,0.0,97,0.00,CLR,,0.00,WeatherDisplay:10.37,2013-10-12 09:39:00,
2013-10-12 05:44:00,44.8,44.0,30.13,East,101,0.0,0.0,97,0.00,CLR,,0.00,WeatherDisplay:10.37,2013-10-12 09:44:00,
2013-10-12 05:49:00,44.7,43.9,30.13,East,100,0.0,0.0,97,0.00,CLR,,0.00,WeatherDisplay:10.37,2013-10-12 09:49:00,
2013-10-12 05:54:00,44.5,43.7,30.14,East,100,0.0,0.0,97,0.00,CLR,,0.00,WeatherDisplay:10.37,2013-10-12 09:54:00,
2013-10-12 05:59:00,44.4,43.6,30.14,East,100,0.0,0.0,97,0.00,CLR,,0.00,WeatherDisplay:10.37,2013-10-12 09:59:00,
2013-10-12 06:04:00,44.4,43.6,30.14,East,101,0.0,0.0,97,0.00,CLR,,0.00,WeatherDisplay:10.37,2013-10-12 10:04:00,
2013-10-12 06:09:00,44.5,43.7,30.14,East,100,0.0,0.0,97,0.00,CLR,,0.00,WeatherDisplay:10.37,2013-10-12 10:09:00,
2013-10-12 06:14:00,44.3,43.5,30.14,East,100,0.0,0.0,97,0.00,CLR,,0.00,WeatherDisplay:10.37,2013-10-12 10:14:00,
2013-10-12 06:19:00,44.2,43.4,30.14,East,100,0.0,0.0,97,0.00,CLR,,0.00,WeatherDisplay:10.37,2013-10-12 10:19:00,
2013-10-12 06:24:00,44.2,43.4,30.14,East,101,0.0,0.0,97,0.00,CLR,,0.00,WeatherDisplay:10.37,2013-10-12 10:24:00,
2013-10-12 06:29:00,44.1,43.3,30.14,East,100,0.0,0.0,97,0.00,CLR,,0.00,WeatherDisplay:10.37,2013-10-12 10:29:00,
2013-10-12 06:34:00,44.2,43.4,30.15,East,100,0.0,0.0,97,0.00,CLR,,0.00,WeatherDisplay:10.37,2013-10-12 10:34:00,
2013-10-12 06:39:00,44.3,43.5,30.15,East,100,0.0,0.0,97,0.00,CLR,,0.00,WeatherDisplay:10.37,2013-10-12 10:39:00,
2013-10-12 06:44:00,44.1,43.3,30.15,East,101,0.0,0.0,97,0.00,CLR,,0.00,WeatherDisplay:10.37,2013-10-12 10:44:00,
2013-10-12 06:49:00,44.0,43.2,30.15,East,101,0.0,0.0,97,0.00,CLR,,0.00,WeatherDisplay:10.37,2013-10-12 10:49:00,
2013-10-12 06:54:00,43.9,43.1,30.15,East,100,0.0,0.0,97,0.00,CLR,,0.00,WeatherDisplay:10.37,2013-10-12 10:54:00,
2013-10-12 06:59:00,43.9,43.1,30.15,East,100,0.0,0.0,97,0.00,CLR,,0.00,WeatherDisplay:10.37,2013-10-12 10:59:00,
2013-10-12 07:04:00,44.0,43.2,30.15,East,100,0.0,0.0,97,0.00,CLR,,0.00,WeatherDisplay:10.37,2013-10-12 11:04:00,
2013-10-12 07:09:00,44.1,43.3,30.15,East,101,0.0,0.0,97,0.00,CLR,,0.00,WeatherDisplay:10.37,2013-10-12 11:09:00,
2013-10-12 07:14:00,44.3,43.5,30.15,East,101,0.0,0.0,97,0.00,CLR,,0.00,WeatherDisplay:10.37,2013-10-12 11:14:00,
2013-10-12 07:19:00,44.3,43.5,30.15,East,100,0.0,0.0,97,0.00,CLR,,0.00,WeatherDisplay:10.37,2013-10-12 11:19:00,
2013-10-12 07:24:00,44.5,43.7,30.15,East,100,0.0,0.0,97,0.00,CLR,,0.00,WeatherDisplay:10.37,2013-10-12 11:24:00,
2013-10-12 07:29:00,44.8,44.0,30.15,East,100,0.0,0.0,97,0.00,CLR,,0.00,WeatherDisplay:10.37,2013-10-12 11:29:00,
2013-10-12 07:34:00,44.8,44.0,30.15,East,100,0.0,0.0,97,0.00,CLR,,0.00,WeatherDisplay:10.37,2013-10-12 11:34:00,
2013-10-12 07:39:00,44.7,43.9,30.16,East,100,0.0,0.0,97,0.00,CLR,,0.00,WeatherDisplay:10.37,2013-10-12 11:39:00,
2013-10-12 07:44:00,44.7,43.9,30.16,East,100,0.0,0.0,97,0.00,CLR,,0.00,WeatherDisplay:10.37,2013-10-12 11:44:00,
2013-10-12 07:50:00,45.0,44.2,30.16,East,101,0.0,0.0,97,0.00,CLR,,0.00,WeatherDisplay:10.37,2013-10-12 11:50:00,
2013-10-12 07:55:00,44.9,44.1,30.16,East,101,0.0,0.0,97,0.00,CLR,,0.00,WeatherDisplay:10.37,2013-10-12 11:55:00,
2013-10-12 08:00:00,44.6,43.8,30.16,East,100,0.0,0.0,97,0.00,CLR,,0.00,WeatherDisplay:10.37,2013-10-12 12:00:00,
2013-10-12 08:05:00,44.4,43.6,30.16,East,100,0.0,0.0,97,0.00,FEW,,0.00,WeatherDisplay:10.37,2013-10-12 12:05:00,
2013-10-12 08:10:00,44.4,43.6,30.17,East,100,0.0,0.0,97,0.00,FEW,,0.00,WeatherDisplay:10.37,2013-10-12 12:10:00,
2013-10-12 08:15:00,44.7,43.9,30.17,East,100,0.0,0.0,97,0.00,FEW,,0.00,WeatherDisplay:10.37,2013-10-12 12:15:00,
2013-10-12 08:20:00,45.1,44.3,30.17,East,100,0.0,0.0,97,0.00,FEW,,0.00,WeatherDisplay:10.37,2013-10-12 12:20:00,
2013-10-12 08:25:00,45.6,44.8,30.17,East,100,0.0,0.0,97,0.00,FEW,,0.00,WeatherDisplay:10.37,2013-10-12 12:25:00,
2013-10-12 08:30:00,46.1,45.3,30.17,East,101,0.0,0.0,97,0.00,FEW,,0.00,WeatherDisplay:10.37,2013-10-12 12:30:00,
2013-10-12 08:35:00,46.5,45.7,30.17,East,101,0.0,0.0,97,0.00,FEW,,0.00,WeatherDisplay:10.37,2013-10-12 12:35:00,
2013-10-12 08:40:00,47.0,46.2,30.17,East,100,0.0,0.0,97,0.00,FEW,,0.00,WeatherDisplay:10.37,2013-10-12 12:40:00,
2013-10-12 08:45:00,47.3,46.5,30.17,East,101,0.0,0.0,97,0.00,FEW,,0.00,WeatherDisplay:10.37,2013-10-12 12:45:00,
2013-10-12 08:50:00,47.6,47.1,30.17,East,100,0.0,0.0,98,0.00,FEW,,0.00,WeatherDisplay:10.37,2013-10-12 12:50:00,
2013-10-12 08:55:00,48.3,47.8,30.17,East,100,0.0,0.0,98,0.00,FEW,,0.00,WeatherDisplay:10.37,2013-10-12 12:55:00,
2013-10-12 09:01:00,49.2,48.7,30.17,East,100,0.0,0.0,98,0.00,FEW,,0.00,WeatherDisplay:10.37,2013-10-12 13:01:00,
2013-10-12 09:06:00,49.9,49.4,30.17,East,100,0.0,0.0,98,0.00,FEW,,0.00,WeatherDisplay:10.37,2013-10-12 13:06:00,
2013-10-12 09:11:00,50.4,49.9,30.17,East,100,0.0,0.0,98,0.00,FEW,,0.00,WeatherDisplay:10.37,2013-10-12 13:11:00,
2013-10-12 09:16:00,50.6,50.1,30.17,South,190,0.8,1.2,98,0.00,FEW,,0.00,WeatherDisplay:10.37,2013-10-12 13:16:00,
2013-10-12 09:21:00,50.7,50.2,30.17,SSE,148,1.2,2.3,98,0.00,FEW,,0.00,WeatherDisplay:10.37,2013-10-12 13:21:00,
2013-10-12 09:26:00,51.1,50.6,30.17,South,181,0.3,0.0,98,0.00,FEW,,0.00,WeatherDisplay:10.37,2013-10-12 13:26:00,
2013-10-12 09:31:00,51.5,51.0,30.17,SSE,155,0.6,1.2,98,0.00,FEW,,0.00,WeatherDisplay:10.37,2013-10-12 13:31:00,
2013-10-12 09:36:00,52.0,51.5,30.17,South,188,2.0,2.3,98,0.00,FEW,,0.00,WeatherDisplay:10.37,2013-10-12 13:36:00,
2013-10-12 09:41:00,52.5,52.0,30.16,SSW,198,1.0,2.3,98,0.00,FEW,,0.00,WeatherDisplay:10.37,2013-10-12 13:41:00,
2013-10-12 09:46:00,53.2,52.4,30.16,SSW,197,1.5,2.3,97,0.00,FEW,,0.00,WeatherDisplay:10.37,2013-10-12 13:46:00,
2013-10-12 09:51:00,54.3,53.2,30.16,SSW,194,0.6,1.2,96,0.00,FEW,,0.00,WeatherDisplay:10.37,2013-10-12 13:51:00,
2013-10-12 09:56:00,55.5,53.5,30.16,SSW,210,1.5,2.3,93,0.00,FEW,,0.00,WeatherDisplay:10.37,2013-10-12 13:56:00,
2013-10-12 10:01:00,56.6,52.8,30.16,SSW,198,1.8,3.5,87,0.00,FEW,,0.00,WeatherDisplay:10.37,2013-10-12 14:01:00,
2013-10-12 10:06:00,57.6,52.5,30.16,South,184,0.1,2.3,83,0.00,FEW,,0.00,WeatherDisplay:10.37,2013-10-12 14:06:00,
2013-10-12 10:11:00,59.0,52.8,30.16,South,186,0.0,0.0,80,0.00,FEW,,0.00,WeatherDisplay:10.37,2013-10-12 14:11:00,
2013-10-12 10:16:00,60.2,52.2,30.16,South,186,0.0,0.0,75,0.00,FEW,,0.00,WeatherDisplay:10.37,2013-10-12 14:16:00,
2013-10-12 10:21:00,61.6,53.2,30.16,South,183,0.0,0.0,74,0.00,FEW,,0.00,WeatherDisplay:10.37,2013-10-12 14:21:00,
2013-10-12 10:26:00,62.8,52.1,30.16,SSW,211,0.6,1.2,68,0.00,FEW,,0.00,WeatherDisplay:10.37,2013-10-12 14:26:00,
2013-10-12 10:31:00,63.5,53.1,30.16,SW,235,0.1,0.0,69,0.00,FEW,,0.00,WeatherDisplay:10.37,2013-10-12 14:31:00,
2013-10-12 10:36:00,64.0,51.6,30.16,SW,214,0.7,1.2,64,0.00,FEW,,0.00,WeatherDisplay:10.37,2013-10-12 14:36:00,
2013-10-12 10:41:00,64.6,53.4,30.16,SE,143,0.3,1.0,67,0.00,FEW,,0.00,WeatherDisplay:10.37,2013-10-12 14:41:00,
2013-10-12 10:46:00,64.9,52.4,30.16,SSW,207,1.3,1.3,64,0.00,FEW,,0.00,WeatherDisplay:10.37,2013-10-12 14:46:00,
2013-10-12 10:51:00,65.2,52.7,30.15,SE,139,0.6,2.3,64,0.00,FEW,,0.00,WeatherDisplay:10.37,2013-10-12 14:51:00,
2013-10-12 10:56:00,65.9,52.9,30.15,SSW,201,1.5,3.5,63,0.00,FEW,,0.00,WeatherDisplay:10.37,2013-10-12 14:56:00,
2013-10-12 11:01:00,66.4,52.5,30.15,South,184,2.0,3.0,61,0.00,FEW,,0.00,WeatherDisplay:10.37,2013-10-12 15:01:00,
2013-10-12 11:06:00,66.6,52.7,30.15,SSW,210,1.4,2.0,61,0.00,FEW,,0.00,WeatherDisplay:10.37,2013-10-12 15:06:00,
2013-10-12 11:11:00,67.0,53.5,30.15,SSE,158,0.9,2.0,62,0.00,FEW,,0.00,WeatherDisplay:10.37,2013-10-12 15:11:00,
2013-10-12 11:16:00,67.7,54.2,30.15,SE,133,0.7,1.0,62,0.00,FEW,,0.00,WeatherDisplay:10.37,2013-10-12 15:16:00,
2013-10-12 11:21:00,68.1,54.1,30.15,East,101,0.5,1.2,61,0.00,FEW,,0.00,WeatherDisplay:10.37,2013-10-12 15:21:00,
2013-10-12 11:26:00,68.6,54.6,30.15,NNE,19,0.0,0.0,61,0.00,FEW,,0.00,WeatherDisplay:10.37,2013-10-12 15:26:00,
2013-10-12 11:32:00,68.8,55.2,30.15,NNW,344,0.2,1.2,62,0.00,FEW,,0.00,WeatherDisplay:10.37,2013-10-12 15:32:00,
2013-10-12 11:37:00,68.6,55.9,30.15,ENE,65,0.7,2.3,64,0.00,FEW,,0.00,WeatherDisplay:10.37,2013-10-12 15:37:00,
2013-10-12 11:42:00,68.9,54.4,30.14,West,275,0.1,2.3,60,0.00,FEW,,0.00,WeatherDisplay:10.37,2013-10-12 15:42:00,
2013-10-12 11:47:00,69.4,57.1,30.15,NNW,337,0.1,0.0,65,0.00,FEW,,0.00,WeatherDisplay:10.37,2013-10-12 15:47:00,
2013-10-12 11:52:00,70.2,56.1,30.15,SSW,197,0.2,2.3,61,0.00,FEW,,0.00,WeatherDisplay:10.37,2013-10-12 15:52:00,
2013-10-12 11:57:00,70.5,55.0,30.14,WNW,289,0.0,3.5,58,0.00,FEW,,0.00,WeatherDisplay:10.37,2013-10-12 15:57:00,
2013-10-12 12:02:00,70.6,56.9,30.15,East,84,0.7,2.0,62,0.00,CLR,,0.00,WeatherDisplay:10.37,2013-10-12 16:02:00,
2013-10-12 12:07:00,71.1,56.0,30.15,SW,221,0.2,1.2,59,0.00,CLR,,0.00,WeatherDisplay:10.37,2013-10-12 16:07:00,
2013-10-12 12:12:00,71.3,56.7,30.15,South,178,1.9,4.0,60,0.00,CLR,,0.00,WeatherDisplay:10.37,2013-10-12 16:12:00,
2013-10-12 12:17:00,72.2,56.1,30.15,SW,216,2.1,3.0,57,0.00,CLR,,0.00,WeatherDisplay:10.37,2013-10-12 16:17:00,
2013-10-12 12:22:00,72.3,55.2,30.15,NNW,345,2.2,3.5,55,0.00,CLR,,0.00,WeatherDisplay:10.37,2013-10-12 16:22:00,
2013-10-12 12:27:00,71.9,56.3,30.15,East,81,1.1,2.3,58,0.00,CLR,,0.00,WeatherDisplay:10.37,2013-10-12 16:27:00,
2013-10-12 12:32:00,72.0,56.4,30.15,NNW,335,0.2,1.2,58,0.00,CLR,,0.00,WeatherDisplay:10.37,2013-10-12 16:32:00,
2013-10-12 12:37:00,72.6,55.0,30.14,ESE,122,0.1,1.2,54,0.00,CLR,,0.00,WeatherDisplay:10.37,2013-10-12 16:37:00,
2013-10-12 12:42:00,73.5,54.8,30.14,NNE,30,0.4,1.2,52,0.00,CLR,,0.00,WeatherDisplay:10.37,2013-10-12 16:42:00,
2013-10-12 12:47:00,73.4,53.1,30.14,East,86,0.2,1.2,49,0.00,CLR,,0.00,WeatherDisplay:10.37,2013-10-12 16:47:00,
2013-10-12 12:52:00,73.2,52.3,30.14,ENE,57,2.1,3.5,48,0.00,CLR,,0.00,WeatherDisplay:10.37,2013-10-12 16:52:00,
2013-10-12 12:57:00,72.9,53.7,30.14,NNW,340,0.5,1.2,51,0.00,CLR,,0.00,WeatherDisplay:10.37,2013-10-12 16:57:00,
2013-10-12 13:02:00,73.5,53.7,30.14,SSW,195,0.5,1.2,50,0.00,SCT,,0.00,WeatherDisplay:10.37,2013-10-12 17:02:00,
2013-10-12 13:07:00,74.1,53.7,30.13,SE,137,0.8,2.3,49,0.00,SCT,,0.00,WeatherDisplay:10.37,2013-10-12 17:07:00,
2013-10-12 13:12:00,73.8,51.7,30.13,SSW,193,1.8,3.5,46,0.00,SCT,,0.00,WeatherDisplay:10.37,2013-10-12 17:12:00,
2013-10-12 13:17:00,73.7,51.0,30.13,NE,34,2.4,3.5,45,0.00,SCT,,0.00,WeatherDisplay:10.37,2013-10-12 17:17:00,
2013-10-12 13:22:00,73.6,50.9,30.12,ENE,60,1.3,2.3,45,0.00,SCT,,0.00,WeatherDisplay:10.37,2013-10-12 17:22:00,
2013-10-12 13:27:00,74.2,52.7,30.13,East,90,1.5,3.5,47,0.00,SCT,,0.00,WeatherDisplay:10.37,2013-10-12 17:27:00,
2013-10-12 13:32:00,74.2,50.9,30.12,East,85,0.8,1.2,44,0.00,SCT,,0.00,WeatherDisplay:10.37,2013-10-12 17:32:00,
2013-10-12 13:37:00,74.3,50.4,30.12,South,170,0.9,2.3,43,0.00,SCT,,0.00,WeatherDisplay:10.37,2013-10-12 17:37:00,
2013-10-12 13:42:00,74.8,50.2,30.12,ENE,60,0.3,1.2,42,0.00,SCT,,0.00,WeatherDisplay:10.37,2013-10-12 17:42:00,
2013-10-12 13:47:00,75.2,49.9,30.12,West,267,0.7,1.2,41,0.00,SCT,,0.00,WeatherDisplay:10.37,2013-10-12 17:47:00,
2013-10-12 13:52:00,74.8,47.5,30.12,East,94,1.7,3.5,38,0.00,SCT,,0.00,WeatherDisplay:10.37,2013-10-12 17:52:00,
2013-10-12 13:57:00,74.6,48.0,30.12,NE,50,2.0,3.0,39,0.00,SCT,,0.00,WeatherDisplay:10.37,2013-10-12 17:57:00,
2013-10-12 14:02:00,74.7,50.1,30.12,ENE,67,0.6,1.2,42,0.00,SCT,,0.00,WeatherDisplay:10.37,2013-10-12 18:02:00,
2013-10-12 14:07:00,75.0,49.7,30.11,SSW,204,1.3,2.3,41,0.00,SCT,,0.00,WeatherDisplay:10.37,2013-10-12 18:07:00,
2013-10-12 14:12:00,75.0,49.7,30.12,NE,46,0.4,1.2,41,0.00,SCT,,0.00,WeatherDisplay:10.37,2013-10-12 18:12:00,
2013-10-12 14:17:00,75.2,47.8,30.11,ESE,122,1.0,2.3,38,0.00,SCT,,0.00,WeatherDisplay:10.37,2013-10-12 18:17:00,
2013-10-12 14:22:00,75.1,47.8,30.11,NE,49,1.3,2.3,38,0.00,SCT,,0.00,WeatherDisplay:10.37,2013-10-12 18:22:00,
2013-10-12 14:27:00,75.0,46.2,30.11,NE,49,1.6,2.3,36,0.00,SCT,,0.00,WeatherDisplay:10.37,2013-10-12 18:27:00,
2013-10-12 14:32:00,75.3,49.3,30.11,East,81,0.8,1.2,40,0.00,SCT,,0.00,WeatherDisplay:10.37,2013-10-12 18:32:00,
2013-10-12 14:37:00,75.8,47.7,30.11,East,79,1.2,3.5,37,0.00,SCT,,0.00,WeatherDisplay:10.37,2013-10-12 18:37:00,
2013-10-12 14:42:00,75.7,49.0,30.11,East,82,0.9,2.3,39,0.00,SCT,,0.00,WeatherDisplay:10.37,2013-10-12 18:42:00,
2013-10-12 14:47:00,75.9,46.3,30.11,East,84,1.2,2.3,35,0.00,SCT,,0.00,WeatherDisplay:10.37,2013-10-12 18:47:00,
2013-10-12 14:52:00,75.7,45.3,30.11,East,85,1.4,2.3,34,0.00,SCT,,0.00,WeatherDisplay:10.37,2013-10-12 18:52:00,
2013-10-12 14:57:00,75.5,44.4,30.11,East,90,1.5,3.5,33,0.00,SCT,,0.00,WeatherDisplay:10.37,2013-10-12 18:57:00,
2013-10-12 15:02:00,75.4,45.1,30.11,ENE,74,1.9,3.5,34,0.00,SCT,,0.00,WeatherDisplay:10.37,2013-10-12 19:02:00,
2013-10-12 15:07:00,75.5,46.7,30.11,SE,143,0.0,1.2,36,0.00,SCT,,0.00,WeatherDisplay:10.37,2013-10-12 19:07:00,
2013-10-12 15:12:00,75.7,44.5,30.11,ESE,120,1.2,3.5,33,0.00,SCT,,0.00,WeatherDisplay:10.37,2013-10-12 19:12:00,
2013-10-12 15:17:00,75.7,47.6,30.11,ENE,77,1.0,2.3,37,0.00,SCT,,0.00,WeatherDisplay:10.37,2013-10-12 19:17:00,
2013-10-12 15:22:00,75.6,45.2,30.11,ESE,108,1.4,2.3,34,0.00,SCT,,0.00,WeatherDisplay:10.37,2013-10-12 19:22:00,
2013-10-12 15:27:00,75.5,46.7,30.10,NE,53,0.4,1.2,36,0.00,SCT,,0.00,WeatherDisplay:10.37,2013-10-12 19:27:00,
2013-10-12 15:32:00,75.6,48.2,30.10,East,79,0.4,2.3,38,0.00,SCT,,0.00,WeatherDisplay:10.37,2013-10-12 19:32:00,
2013-10-12 15:38:00,75.9,47.8,30.10,NE,44,1.0,2.0,37,0.00,SCT,,0.00,WeatherDisplay:10.37,2013-10-12 19:38:00,
2013-10-12 15:43:00,75.7,48.3,30.10,ENE,74,0.9,2.3,38,0.00,SCT,,0.00,WeatherDisplay:10.37,2013-10-12 19:43:00,
2013-10-12 15:48:00,75.9,48.5,30.10,NE,56,0.6,1.2,38,0.00,SCT,,0.00,WeatherDisplay:10.37,2013-10-12 19:48:00,
2013-10-12 15:53:00,76.0,48.6,30.10,SE,131,1.5,3.5,38,0.00,SCT,,0.00,WeatherDisplay:10.37,2013-10-12 19:53:00,
2013-10-12 15:58:00,75.8,49.1,30.10,ENE,77,0.3,2.3,39,0.00,SCT,,0.00,WeatherDisplay:10.37,2013-10-12 19:58:00,
2013-10-12 16:03:00,75.9,50.5,30.10,East,84,0.3,3.0,41,0.00,SCT,,0.00,WeatherDisplay:10.37,2013-10-12 20:03:00,
2013-10-12 16:08:00,75.7,50.3,30.09,East,91,0.1,1.0,41,0.00,SCT,,0.00,WeatherDisplay:10.37,2013-10-12 20:08:00,
2013-10-12 16:13:00,75.6,52.1,30.10,ENE,78,0.2,1.2,44,0.00,SCT,,0.00,WeatherDisplay:10.37,2013-10-12 20:13:00,
2013-10-12 16:18:00,75.6,50.9,30.10,North,360,0.0,1.2,42,0.00,SCT,,0.00,WeatherDisplay:10.37,2013-10-12 20:18:00,
2013-10-12 16:23:00,75.6,49.6,30.10,East,88,1.3,2.3,40,0.00,SCT,,0.00,WeatherDisplay:10.37,2013-10-12 20:23:00,
2013-10-12 16:28:00,75.3,50.6,30.10,East,88,1.0,3.5,42,0.00,SCT,,0.00,WeatherDisplay:10.37,2013-10-12 20:28:00,
2013-10-12 16:33:00,75.3,49.3,30.10,East,84,0.3,2.3,40,0.00,SCT,,0.00,WeatherDisplay:10.37,2013-10-12 20:33:00,
2013-10-12 16:38:00,75.4,51.3,30.10,ENE,75,0.7,1.2,43,0.00,SCT,,0.00,WeatherDisplay:10.37,2013-10-12 20:38:00,
2013-10-12 16:43:00,75.4,50.1,30.10,East,91,0.8,2.3,41,0.00,SCT,,0.00,WeatherDisplay:10.37,2013-10-12 20:43:00,
2013-10-12 16:48:00,75.0,50.3,30.09,East,81,1.6,2.3,42,0.00,SCT,,0.00,WeatherDisplay:10.37,2013-10-12 20:48:00,
2013-10-12 16:53:00,74.8,51.4,30.09,East,95,1.4,2.0,44,0.00,SCT,,0.00,WeatherDisplay:10.37,2013-10-12 20:53:00,
2013-10-12 16:58:00,74.5,51.8,30.09,East,88,0.2,2.0,45,0.00,SCT,,0.00,WeatherDisplay:10.37,2013-10-12 20:58:00,
2013-10-12 17:03:00,74.4,51.7,30.09,ESE,110,0.4,1.2,45,0.00,SCT,,0.00,WeatherDisplay:10.37,2013-10-12 21:03:00,
2013-10-12 17:08:00,74.2,52.1,30.09,East,88,0.6,1.2,46,0.00,SCT,,0.00,WeatherDisplay:10.37,2013-10-12 21:08:00,
2013-10-12 17:13:00,74.1,52.6,30.09,East,86,0.3,1.2,47,0.00,SCT,,0.00,WeatherDisplay:10.37,2013-10-12 21:13:00,
2013-10-12 17:18:00,74.0,51.9,30.09,NE,46,0.0,1.2,46,0.00,SCT,,0.00,WeatherDisplay:10.37,2013-10-12 21:18:00,
2013-10-12 17:23:00,74.0,51.9,30.09,ENE,58,0.0,0.0,46,0.00,SCT,,0.00,WeatherDisplay:10.37,2013-10-12 21:23:00,
2013-10-12 17:28:00,73.9,51.2,30.09,NNE,13,0.1,1.2,45,0.00,SCT,,0.00,WeatherDisplay:10.37,2013-10-12 21:28:00,
2013-10-12 17:33:00,73.2,50.6,30.09,ENE,78,0.9,2.0,45,0.00,SCT,,0.00,WeatherDisplay:10.37,2013-10-12 21:33:00,
2013-10-12 17:38:00,72.9,50.9,30.09,East,79,0.2,1.2,46,0.00,SCT,,0.00,WeatherDisplay:10.37,2013-10-12 21:38:00,
2013-10-12 17:43:00,72.5,51.7,30.09,East,81,0.4,1.2,48,0.00,SCT,,0.00,WeatherDisplay:10.37,2013-10-12 21:43:00,
2013-10-12 17:48:00,71.9,51.7,30.09,NE,56,0.8,1.2,49,0.00,SCT,,0.00,WeatherDisplay:10.37,2013-10-12 21:48:00,
2013-10-12 17:53:00,71.5,52.9,30.09,ENE,58,0.3,1.2,52,0.00,SCT,,0.00,WeatherDisplay:10.37,2013-10-12 21:53:00,
2013-10-12 17:58:00,71.0,53.5,30.09,East,79,1.0,1.2,54,0.00,SCT,,0.00,WeatherDisplay:10.37,2013-10-12 21:58:00,
2013-10-12 18:03:00,70.5,54.0,30.08,East,79,0.0,1.2,56,0.00,SCT,,0.00,WeatherDisplay:10.37,2013-10-12 22:03:00,
2013-10-12 18:08:00,70.2,53.8,30.09,East,79,0.0,0.0,56,0.00,SCT,,0.00,WeatherDisplay:10.37,2013-10-12 22:08:00,
2013-10-12 18:13:00,69.9,53.5,30.09,NE,53,0.8,1.2,56,0.00,SCT,,0.00,WeatherDisplay:10.37,2013-10-12 22:13:00,
2013-10-12 18:18:00,69.5,53.6,30.09,NNE,33,0.0,0.0,57,0.00,SCT,,0.00,WeatherDisplay:10.37,2013-10-12 22:18:00,
2013-10-12 18:23:00,69.0,53.6,30.09,NNE,33,0.2,1.2,58,0.00,SCT,,0.00,WeatherDisplay:10.37,2013-10-12 22:23:00,
2013-10-12 18:28:00,68.2,52.9,30.09,NNE,33,0.0,0.0,58,0.00,SCT,,0.00,WeatherDisplay:10.37,2013-10-12 22:28:00,
2013-10-12 18:33:00,67.4,52.6,30.09,NNE,33,0.0,0.0,59,0.00,SCT,,0.00,WeatherDisplay:10.37,2013-10-12 22:33:00,
2013-10-12 18:38:00,66.6,52.3,30.10,NNE,32,0.1,0.0,60,0.00,SCT,,0.00,WeatherDisplay:10.37,2013-10-12 22:38:00,
2013-10-12 18:43:00,66.0,52.6,30.10,NNE,33,0.0,0.0,62,0.00,SCT,,0.00,WeatherDisplay:10.37,2013-10-12 22:43:00,
2013-10-12 18:48:00,65.3,51.9,30.10,NNE,33,0.0,0.0,62,0.00,SCT,,0.00,WeatherDisplay:10.37,2013-10-12 22:48:00,
2013-10-12 18:53:00,65.0,51.7,30.10,NNE,33,0.0,0.0,62,0.00,SCT,,0.00,WeatherDisplay:10.37,2013-10-12 22:53:00,
2013-10-12 18:58:00,64.5,52.0,30.10,NNE,32,0.0,0.0,64,0.00,SCT,,0.00,WeatherDisplay:10.37,2013-10-12 22:58:00,
2013-10-12 19:03:00,63.7,51.7,30.10,NNE,33,0.0,0.0,65,0.00,SCT,,0.00,WeatherDisplay:10.37,2013-10-12 23:03:00,
2013-10-12 19:08:00,62.9,51.8,30.10,NNE,32,0.0,0.0,67,0.00,SCT,,0.00,WeatherDisplay:10.37,2013-10-12 23:08:00,
2013-10-12 19:13:00,62.1,51.4,30.10,NNE,33,0.0,0.0,68,0.00,SCT,,0.00,WeatherDisplay:10.37,2013-10-12 23:13:00,
2013-10-12 19:18:00,61.4,51.5,30.10,NNE,32,0.0,0.0,70,0.00,SCT,,0.00,WeatherDisplay:10.37,2013-10-12 23:18:00,
2013-10-12 19:23:00,60.8,51.3,30.10,NNE,33,0.0,0.0,71,0.00,SCT,,0.00,WeatherDisplay:10.37,2013-10-12 23:23:00,
2013-10-12 19:28:00,60.3,51.2,30.10,NNE,33,0.0,0.0,72,0.00,SCT,,0.00,WeatherDisplay:10.37,2013-10-12 23:28:00,
2013-10-12 19:33:00,59.8,51.5,30.10,NNE,32,0.0,0.0,74,0.00,SCT,,0.00,WeatherDisplay:10.37,2013-10-12 23:33:00,
2013-10-12 19:38:00,59.5,51.2,30.11,NNE,33,0.0,0.0,74,0.00,SCT,,0.00,WeatherDisplay:10.37,2013-10-12 23:38:00,
2013-10-12 19:43:00,59.3,51.0,30.11,NNE,32,0.0,0.0,74,0.00,SCT,,0.00,WeatherDisplay:10.37,2013-10-12 23:43:00,
2013-10-12 19:48:00,59.1,50.8,30.11,NNE,32,0.0,0.0,74,0.00,SCT,,0.00,WeatherDisplay:10.37,2013-10-12 23:48:00,
2013-10-12 19:53:00,58.8,50.9,30.11,NNE,33,0.0,0.0,75,0.00,SCT,,0.00,WeatherDisplay:10.37,2013-10-12 23:53:00,
2013-10-12 19:58:00,58.6,50.7,30.11,NNE,33,0.0,0.0,75,0.00,SCT,,0.00,WeatherDisplay:10.37,2013-10-12 23:58:00,
2013-10-12 20:03:00,58.3,50.8,30.11,NNE,33,0.0,0.0,76,0.00,FEW,,0.00,WeatherDisplay:10.37,2013-10-13 00:03:00,
2013-10-12 20:09:00,58.1,50.6,30.11,NNE,33,0.0,0.0,76,0.00,FEW,,0.00,WeatherDisplay:10.37,2013-10-13 00:09:00,
2013-10-12 20:13:00,57.9,50.7,30.11,NNE,32,0.0,0.0,77,0.00,FEW,,0.00,WeatherDisplay:10.37,2013-10-13 00:13:00,
2013-10-12 20:18:00,57.7,50.2,30.11,NNE,32,0.0,0.0,76,0.00,FEW,,0.00,WeatherDisplay:10.37,2013-10-13 00:18:00,
2013-10-12 20:24:00,57.6,50.1,30.11,NNE,33,0.0,0.0,76,0.00,FEW,,0.00,WeatherDisplay:10.37,2013-10-13 00:24:00,
2013-10-12 20:29:00,57.5,49.6,30.11,NE,47,0.2,1.2,75,0.00,FEW,,0.00,WeatherDisplay:10.37,2013-10-13 00:29:00,
2013-10-12 20:34:00,57.8,49.2,30.12,ENE,75,0.9,1.2,73,0.00,FEW,,0.00,WeatherDisplay:10.37,2013-10-13 00:34:00,
2013-10-12 20:39:00,58.5,48.4,30.12,ENE,75,0.0,0.0,69,0.00,FEW,,0.00,WeatherDisplay:10.37,2013-10-13 00:39:00,
2013-10-12 20:44:00,58.5,48.4,30.12,ENE,75,0.1,1.2,69,0.00,FEW,,0.00,WeatherDisplay:10.37,2013-10-13 00:44:00,
2013-10-12 20:49:00,58.6,48.1,30.12,ENE,75,0.0,1.2,68,0.00,FEW,,0.00,WeatherDisplay:10.37,2013-10-13 00:49:00,
2013-10-12 20:54:00,58.7,47.4,30.12,ENE,75,0.2,1.2,66,0.00,FEW,,0.00,WeatherDisplay:10.37,2013-10-13 00:54:00,
2013-10-12 20:59:00,58.9,47.2,30.12,ENE,75,1.1,2.3,65,0.00,FEW,,0.00,WeatherDisplay:10.37,2013-10-13 00:59:00,
2013-10-12 21:04:00,59.2,47.4,30.12,ENE,76,0.0,1.2,65,0.00,FEW,,0.00,WeatherDisplay:10.37,2013-10-13 01:04:00,
2013-10-12 21:09:00,59.1,46.9,30.12,ENE,77,0.8,1.2,64,0.00,FEW,,0.00,WeatherDisplay:10.37,2013-10-13 01:09:00,
2013-10-12 21:14:00,59.0,46.8,30.12,ENE,78,0.0,0.0,64,0.00,FEW,,0.00,WeatherDisplay:10.37,2013-10-13 01:14:00,
2013-10-12 21:19:00,58.8,46.2,30.12,East,86,1.5,2.3,63,0.00,FEW,,0.00,WeatherDisplay:10.37,2013-10-13 01:19:00,
2013-10-12 21:24:00,59.0,46.8,30.12,East,86,0.0,0.0,64,0.00,FEW,,0.00,WeatherDisplay:10.37,2013-10-13 01:24:00,
2013-10-12 21:29:00,58.7,46.1,30.12,East,86,0.1,1.2,63,0.00,FEW,,0.00,WeatherDisplay:10.37,2013-10-13 01:29:00,
2013-10-12 21:34:00,58.6,46.0,30.12,East,86,0.7,1.0,63,0.00,FEW,,0.00,WeatherDisplay:10.37,2013-10-13 01:34:00,
2013-10-12 21:39:00,58.6,46.0,30.12,ENE,78,0.0,0.0,63,0.00,FEW,,0.00,WeatherDisplay:10.37,2013-10-13 01:39:00,
2013-10-12 21:44:00,58.5,45.5,30.12,ENE,78,0.1,1.2,62,0.00,FEW,,0.00,WeatherDisplay:10.37,2013-10-13 01:44:00,
2013-10-12 21:49:00,58.4,45.8,30.12,ENE,78,0.0,0.0,63,0.00,FEW,,0.00,WeatherDisplay:10.37,2013-10-13 01:49:00,
2013-10-12 21:54:00,58.2,45.2,30.13,ENE,78,0.0,0.0,62,0.00,FEW,,0.00,WeatherDisplay:10.37,2013-10-13 01:54:00,
2013-10-12 21:57:00,58.1,45.1,30.13,ENE,78,0.0,0.0,62,0.00,FEW,,0.00,WeatherDisplay:10.37,2013-10-13 01:57:00,
2013-10-12 22:02:00,57.9,45.4,30.13,ENE,78,0.0,0.0,63,0.00,SCT,,0.00,WeatherDisplay:10.37,2013-10-13 02:02:00,
2013-10-12 22:07:00,57.8,45.7,30.13,ENE,78,0.0,0.0,64,0.00,SCT,,0.00,WeatherDisplay:10.37,2013-10-13 02:07:00,
2013-10-12 22:12:00,57.5,45.8,30.14,ENE,78,0.0,0.0,65,0.00,SCT,,0.00,WeatherDisplay:10.37,2013-10-13 02:12:00,
2013-10-12 22:17:00,57.0,45.3,30.13,ENE,78,0.0,0.0,65,0.00,SCT,,0.00,WeatherDisplay:10.37,2013-10-13 02:17:00,
2013-10-12 22:22:00,56.7,45.5,30.14,ENE,78,0.0,0.0,66,0.00,SCT,,0.00,WeatherDisplay:10.37,2013-10-13 02:22:00,
2013-10-12 22:27:00,56.5,45.3,30.14,ENE,78,0.0,0.0,66,0.00,SCT,,0.00,WeatherDisplay:10.37,2013-10-13 02:27:00,
2013-10-12 22:32:00,56.4,45.2,30.14,ENE,78,0.0,0.0,66,0.00,SCT,,0.00,WeatherDisplay:10.37,2013-10-13 02:32:00,
2013-10-12 22:37:00,56.4,45.2,30.13,ENE,78,0.0,0.0,66,0.00,SCT,,0.00,WeatherDisplay:10.37,2013-10-13 02:37:00,
2013-10-12 22:42:00,56.3,45.1,30.14,ENE,78,0.0,0.0,66,0.00,SCT,,0.00,WeatherDisplay:10.37,2013-10-13 02:42:00,
2013-10-12 22:47:00,56.0,44.8,30.13,ENE,78,0.0,0.0,66,0.00,SCT,,0.00,WeatherDisplay:10.37,2013-10-13 02:47:00,
2013-10-12 22:52:00,55.7,45.3,30.14,ENE,78,0.0,0.0,68,0.00,SCT,,0.00,WeatherDisplay:10.37,2013-10-13 02:52:00,
2013-10-12 22:57:00,55.5,45.1,30.14,ENE,78,0.0,0.0,68,0.00,SCT,,0.00,WeatherDisplay:10.37,2013-10-13 02:57:00,
2013-10-12 23:02:00,55.4,45.0,30.14,ENE,78,0.0,0.0,68,0.00,BKN,,0.00,WeatherDisplay:10.37,2013-10-13 03:02:00,
2013-10-12 23:07:00,55.3,44.9,30.14,ENE,78,0.1,1.2,68,0.00,BKN,,0.00,WeatherDisplay:10.37,2013-10-13 03:07:00,
2013-10-12 23:12:00,55.2,44.8,30.14,ENE,78,0.0,0.0,68,0.00,BKN,,0.00,WeatherDisplay:10.37,2013-10-13 03:12:00,
2013-10-12 23:17:00,55.0,45.0,30.14,ENE,78,0.0,0.0,69,0.00,BKN,,0.00,WeatherDisplay:10.37,2013-10-13 03:17:00,
2013-10-12 23:22:00,55.0,44.2,30.14,ENE,78,0.0,0.0,67,0.00,BKN,,0.00,WeatherDisplay:10.37,2013-10-13 03:22:00,
2013-10-12 23:27:00,55.1,44.3,30.14,ENE,78,0.0,0.0,67,0.00,BKN,,0.00,WeatherDisplay:10.37,2013-10-13 03:27:00,
2013-10-12 23:32:00,55.1,44.7,30.14,ENE,78,0.0,0.0,68,0.00,BKN,,0.00,WeatherDisplay:10.37,2013-10-13 03:32:00,
2013-10-12 23:37:00,55.0,45.4,30.13,ENE,78,0.0,0.0,70,0.00,BKN,,0.00,WeatherDisplay:10.37,2013-10-13 03:37:00,
2013-10-12 23:42:00,54.7,45.1,30.14,SSE,149,1.2,2.3,70,0.00,BKN,,0.00,WeatherDisplay:10.37,2013-10-13 03:42:00,
2013-10-12 23:47:00,54.7,45.1,30.13,SSE,148,0.0,0.0,70,0.00,BKN,,0.00,WeatherDisplay:10.37,2013-10-13 03:47:00,
2013-10-12 23:52:00,54.6,45.0,30.13,SSE,149,0.0,0.0,70,0.00,BKN,,0.00,WeatherDisplay:10.37,2013-10-13 03:52:00,
2013-10-12 23:57:00,54.4,44.8,30.13,SSE,149,0.0,0.0,70,0.00,BKN,,0.00,WeatherDisplay:10.37,2013-10-13 03:57:00,